sensor_id;sensor_type;location;lat;lon;timestamp;pressure;altitude;pressure_sealevel;temperature;humidity
9421;BME280;4749;51.398;5.466;2022-07-23T00:00:25;101669.84;;;17.93;100.00
9421;BME280;4749;51.398;5.466;2022-07-23T00:02:52;101668.25;;;17.80;100.00
9421;BME280;4749;51.398;5.466;2022-07-23T00:05:20;101664.75;;;17.78;100.00
9421;BME280;4749;51.398;5.466;2022-07-23T00:07:47;101657.63;;;17.79;100.00
9421;BME280;4749;51.398;5.466;2022-07-23T00:10:14;101664.88;;;17.67;100.00
9421;BME280;4749;51.398;5.466;2022-07-23T00:12:41;101660.25;;;17.80;100.00
9421;BME280;4749;51.398;5.466;2022-07-23T00:15:18;101659.41;;;17.78;100.00
9421;BME280;4749;51.398;5.466;2022-07-23T00:17:45;101664.75;;;17.78;100.00
9421;BME280;4749;51.398;5.466;2022-07-23T00:20:12;101664.84;;;17.69;100.00
9421;BME280;4749;51.398;5.466;2022-07-23T00:23:06;101665.72;;;17.71;100.00
9421;BME280;4749;51.398;5.466;2022-07-23T00:25:34;101665.66;;;17.77;100.00
9421;BME280;4749;51.398;5.466;2022-07-23T00:28:02;101661.25;;;17.73;100.00
9421;BME280;4749;51.398;5.466;2022-07-23T00:30:31;101659.56;;;17.66;100.00
9421;BME280;4749;51.398;5.466;2022-07-23T00:33:02;101655.09;;;17.68;100.00
9421;BME280;4749;51.398;5.466;2022-07-23T00:35:34;101656.91;;;17.64;100.00
9421;BME280;4749;51.398;5.466;2022-07-23T00:38:03;101663.22;;;17.57;100.00
9421;BME280;4749;51.398;5.466;2022-07-23T00:40:31;101652.53;;;17.62;100.00
9421;BME280;4749;51.398;5.466;2022-07-23T00:42:58;101659.72;;;17.54;100.00
9421;BME280;4749;51.398;5.466;2022-07-23T00:45:26;101661.59;;;17.45;100.00
9421;BME280;4749;51.398;5.466;2022-07-23T00:47:54;101659.88;;;17.43;100.00
9421;BME280;4749;51.398;5.466;2022-07-23T00:50:21;101657.19;;;17.44;100.00
9421;BME280;4749;51.398;5.466;2022-07-23T00:52:49;101654.47;;;17.48;100.00
9421;BME280;4749;51.398;5.466;2022-07-23T00:55:16;101655.50;;;17.36;100.00
9421;BME280;4749;51.398;5.466;2022-07-23T00:57:43;101645.06;;;17.24;100.00
9421;BME280;4749;51.398;5.466;2022-07-23T01:00:13;101642.38;;;17.22;100.00
9421;BME280;4749;51.398;5.466;2022-07-23T01:02:41;101644.16;;;17.23;100.00
9421;BME280;4749;51.398;5.466;2022-07-23T01:05:09;101643.25;;;17.26;100.00
9421;BME280;4749;51.398;5.466;2022-07-23T01:07:37;101646.06;;;17.12;100.00
9421;BME280;4749;51.398;5.466;2022-07-23T01:10:06;101651.38;;;17.12;100.00
9421;BME280;4749;51.398;5.466;2022-07-23T01:12:54;101654.97;;;17.06;100.00
9421;BME280;4749;51.398;5.466;2022-07-23T01:15:21;101657.75;;;16.96;100.00
9421;BME280;4749;51.398;5.466;2022-07-23T01:17:49;101641.00;;;16.91;100.00
9421;BME280;4749;51.398;5.466;2022-07-23T01:20:17;101642.75;;;16.93;100.00
9421;BME280;4749;51.398;5.466;2022-07-23T01:22:44;101649.78;;;16.99;100.00
9421;BME280;4749;51.398;5.466;2022-07-23T01:25:11;101652.59;;;16.80;100.00
9421;BME280;4749;51.398;5.466;2022-07-23T01:27:39;101653.47;;;16.81;100.00
9421;BME280;4749;51.398;5.466;2022-07-23T01:30:07;101654.44;;;16.75;100.00
9421;BME280;4749;51.398;5.466;2022-07-23T01:32:34;101645.63;;;16.67;100.00
9421;BME280;4749;51.398;5.466;2022-07-23T01:35:01;101652.78;;;16.56;100.00
9421;BME280;4749;51.398;5.466;2022-07-23T01:37:28;101652.75;;;16.62;100.00
9421;BME280;4749;51.398;5.466;2022-07-23T01:39:55;101651.84;;;16.63;100.00
9421;BME280;4749;51.398;5.466;2022-07-23T01:42:23;101658.13;;;16.57;100.00
9421;BME280;4749;51.398;5.466;2022-07-23T01:44:50;101656.50;;;16.41;100.00
9421;BME280;4749;51.398;5.466;2022-07-23T01:47:17;101661.81;;;16.38;100.00
9421;BME280;4749;51.398;5.466;2022-07-23T01:49:44;101667.09;;;16.41;100.00
9421;BME280;4749;51.398;5.466;2022-07-23T01:52:11;101656.56;;;16.32;100.00
9421;BME280;4749;51.398;5.466;2022-07-23T01:54:39;101656.50;;;16.38;100.00
9421;BME280;4749;51.398;5.466;2022-07-23T01:57:07;101648.53;;;16.38;100.00
9421;BME280;4749;51.398;5.466;2022-07-23T01:59:34;101645.06;;;16.31;100.00
9421;BME280;4749;51.398;5.466;2022-07-23T02:02:02;101642.47;;;16.22;100.00
9421;BME280;4749;51.398;5.466;2022-07-23T02:04:31;101645.97;;;16.27;100.00
9421;BME280;4749;51.398;5.466;2022-07-23T02:06:58;101653.16;;;16.13;100.00
9421;BME280;4749;51.398;5.466;2022-07-23T02:09:25;101648.75;;;16.11;100.00
9421;BME280;4749;51.398;5.466;2022-07-23T02:11:52;101646.19;;;15.97;100.00
9421;BME280;4749;51.398;5.466;2022-07-23T02:14:19;101641.78;;;15.99;100.00
9421;BME280;4749;51.398;5.466;2022-07-23T02:16:46;101647.19;;;15.82;100.00
9421;BME280;4749;51.398;5.466;2022-07-23T02:19:14;101649.84;;;15.79;100.00
9421;BME280;4749;51.398;5.466;2022-07-23T02:21:41;101638.34;;;15.80;100.00
9421;BME280;4749;51.398;5.466;2022-07-23T02:24:08;101644.59;;;15.70;100.00
9421;BME280;4749;51.398;5.466;2022-07-23T02:26:35;101647.31;;;15.64;100.00
9421;BME280;4749;51.398;5.466;2022-07-23T02:29:04;101637.56;;;15.66;100.00
9421;BME280;4749;51.398;5.466;2022-07-23T02:31:32;101634.91;;;15.60;100.00
9421;BME280;4749;51.398;5.466;2022-07-23T02:34:00;101637.59;;;15.57;100.00
9421;BME280;4749;51.398;5.466;2022-07-23T02:36:28;101640.22;;;15.58;100.00
9421;BME280;4749;51.398;5.466;2022-07-23T02:38:55;101645.63;;;15.40;100.00
9421;BME280;4749;51.398;5.466;2022-07-23T02:41:23;101651.81;;;15.36;100.00
9421;BME280;4749;51.398;5.466;2022-07-23T02:43:50;101644.78;;;15.26;100.00
9421;BME280;4749;51.398;5.466;2022-07-23T02:46:17;101649.19;;;15.30;100.00
9421;BME280;4749;51.398;5.466;2022-07-23T02:48:45;101649.22;;;15.22;100.00
9421;BME280;4749;51.398;5.466;2022-07-23T02:51:12;101642.19;;;15.15;100.00
9421;BME280;4749;51.398;5.466;2022-07-23T02:53:41;101651.91;;;15.10;100.00
9421;BME280;4749;51.398;5.466;2022-07-23T02:56:08;101638.69;;;15.07;100.00
9421;BME280;4749;51.398;5.466;2022-07-23T02:58:36;101642.22;;;15.04;100.00
9421;BME280;4749;51.398;5.466;2022-07-23T03:01:03;101643.09;;;15.02;100.00
9421;BME280;4749;51.398;5.466;2022-07-23T03:03:30;101647.50;;;15.03;100.00
9421;BME280;4749;51.398;5.466;2022-07-23T03:05:57;101637.78;;;15.14;100.00
9421;BME280;4749;51.398;5.466;2022-07-23T03:08:24;101639.56;;;15.09;100.00
9421;BME280;4749;51.398;5.466;2022-07-23T03:10:52;101641.31;;;15.10;100.00
9421;BME280;4749;51.398;5.466;2022-07-23T03:13:19;101646.63;;;15.08;100.00
9421;BME280;4749;51.398;5.466;2022-07-23T03:15:46;101651.03;;;15.08;100.00
9421;BME280;4749;51.398;5.466;2022-07-23T03:18:13;101653.72;;;14.99;100.00
9421;BME280;4749;51.398;5.466;2022-07-23T03:20:40;101666.06;;;15.00;100.00
9421;BME280;4749;51.398;5.466;2022-07-23T03:23:07;101666.06;;;14.95;100.00
9421;BME280;4749;51.398;5.466;2022-07-23T03:25:34;101669.59;;;14.92;100.00
9421;BME280;4749;51.398;5.466;2022-07-23T03:28:01;101671.38;;;14.92;100.00
9421;BME280;4749;51.398;5.466;2022-07-23T03:30:29;101669.63;;;14.85;100.00
9421;BME280;4749;51.398;5.466;2022-07-23T03:32:56;101674.03;;;14.87;100.00
9421;BME280;4749;51.398;5.466;2022-07-23T03:35:23;101674.94;;;14.80;100.00
9421;BME280;4749;51.398;5.466;2022-07-23T03:37:50;101680.25;;;14.73;100.00
9421;BME280;4749;51.398;5.466;2022-07-23T03:40:17;101678.44;;;14.79;100.00
9421;BME280;4749;51.398;5.466;2022-07-23T03:42:45;101674.06;;;14.80;100.00
9421;BME280;4749;51.398;5.466;2022-07-23T03:45:12;101686.44;;;14.72;100.00
9421;BME280;4749;51.398;5.466;2022-07-23T03:47:39;101676.69;;;14.71;100.00
9421;BME280;4749;51.398;5.466;2022-07-23T03:50:07;101680.22;;;14.77;100.00
9421;BME280;4749;51.398;5.466;2022-07-23T03:52:34;101672.28;;;14.79;100.00
9421;BME280;4749;51.398;5.466;2022-07-23T03:55:03;101670.53;;;14.75;100.00
9421;BME280;4749;51.398;5.466;2022-07-23T03:57:31;101674.06;;;14.61;100.00
9421;BME280;4749;51.398;5.466;2022-07-23T03:59:58;101678.50;;;14.64;100.00
9421;BME280;4749;51.398;5.466;2022-07-23T04:02:25;101676.69;;;14.78;100.00
9421;BME280;4749;51.398;5.466;2022-07-23T04:04:52;101670.56;;;14.64;100.00
9421;BME280;4749;51.398;5.466;2022-07-23T04:07:19;101671.41;;;14.75;100.00
9421;BME280;4749;51.398;5.466;2022-07-23T04:09:46;101674.06;;;14.72;100.00
9421;BME280;4749;51.398;5.466;2022-07-23T04:12:14;101679.34;;;14.78;100.00
9421;BME280;4749;51.398;5.466;2022-07-23T04:14:41;101680.22;;;14.71;100.00
9421;BME280;4749;51.398;5.466;2022-07-23T04:17:08;101682.00;;;14.61;100.00
9421;BME280;4749;51.398;5.466;2022-07-23T04:19:35;101684.66;;;14.63;100.00
9421;BME280;4749;51.398;5.466;2022-07-23T04:22:07;101682.88;;;14.60;100.00
9421;BME280;4749;51.398;5.466;2022-07-23T04:24:34;101700.53;;;14.80;100.00
9421;BME280;4749;51.398;5.466;2022-07-23T04:27:02;101693.44;;;14.86;100.00
9421;BME280;4749;51.398;5.466;2022-07-23T04:29:29;101691.66;;;14.96;100.00
9421;BME280;4749;51.398;5.466;2022-07-23T04:31:57;101696.91;;;15.13;100.00
9421;BME280;4749;51.398;5.466;2022-07-23T04:34:24;101688.81;;;15.68;100.00
9421;BME280;4749;51.398;5.466;2022-07-23T04:36:53;101687.03;;;15.70;100.00
9421;BME280;4749;51.398;5.466;2022-07-23T04:39:21;101693.19;;;15.76;100.00
9421;BME280;4749;51.398;5.466;2022-07-23T04:41:48;101694.81;;;15.99;100.00
9421;BME280;4749;51.398;5.466;2022-07-23T04:44:15;101696.44;;;16.20;100.00
9421;BME280;4749;51.398;5.466;2022-07-23T04:46:42;101700.06;;;16.10;100.00
9421;BME280;4749;51.398;5.466;2022-07-23T04:49:09;101692.81;;;16.30;100.00
9421;BME280;4749;51.398;5.466;2022-07-23T04:51:37;101695.44;;;16.36;100.00
9421;BME280;4749;51.398;5.466;2022-07-23T04:54:04;101696.34;;;16.35;100.00
9421;BME280;4749;51.398;5.466;2022-07-23T04:56:31;101706.03;;;16.39;100.00
9421;BME280;4749;51.398;5.466;2022-07-23T04:58:58;101706.84;;;16.46;100.00
9421;BME280;4749;51.398;5.466;2022-07-23T05:01:25;101705.78;;;16.71;100.00
9421;BME280;4749;51.398;5.466;2022-07-23T05:03:52;101712.88;;;16.68;100.00
9421;BME280;4749;51.398;5.466;2022-07-23T05:06:20;101716.38;;;16.76;100.00
9421;BME280;4749;51.398;5.466;2022-07-23T05:08:47;101712.91;;;16.69;100.00
9421;BME280;4749;51.398;5.466;2022-07-23T05:11:14;101712.94;;;16.61;100.00
9421;BME280;4749;51.398;5.466;2022-07-23T05:13:41;101712.00;;;16.67;100.00
9421;BME280;4749;51.398;5.466;2022-07-23T05:16:08;101713.69;;;16.80;100.00
9421;BME280;4749;51.398;5.466;2022-07-23T05:18:35;101719.91;;;16.76;100.00
9421;BME280;4749;51.398;5.466;2022-07-23T05:21:02;101713.44;;;17.05;100.00
9421;BME280;4749;51.398;5.466;2022-07-23T05:23:29;101710.69;;;17.12;100.00
9421;BME280;4749;51.398;5.466;2022-07-23T05:25:56;101712.38;;;17.24;100.00
9421;BME280;4749;51.398;5.466;2022-07-23T05:28:23;101717.47;;;17.42;100.00
9421;BME280;4749;51.398;5.466;2022-07-23T05:30:50;101710.28;;;17.51;100.00
9421;BME280;4749;51.398;5.466;2022-07-23T05:33:21;101707.53;;;17.58;100.00
9421;BME280;4749;51.398;5.466;2022-07-23T05:35:49;101719.00;;;17.62;100.00
9421;BME280;4749;51.398;5.466;2022-07-23T05:38:16;101711.03;;;17.60;100.00
9421;BME280;4749;51.398;5.466;2022-07-23T05:40:43;101723.06;;;17.90;100.00
9421;BME280;4749;51.398;5.466;2022-07-23T05:43:10;101722.09;;;17.97;100.00
9421;BME280;4749;51.398;5.466;2022-07-23T05:45:38;101723.84;;;17.98;100.00
9421;BME280;4749;51.398;5.466;2022-07-23T05:48:05;101728.25;;;18.01;100.00
9421;BME280;4749;51.398;5.466;2022-07-23T05:50:32;101729.28;;;17.89;100.00
9421;BME280;4749;51.398;5.466;2022-07-23T05:52:59;101723.69;;;18.11;100.00
9421;BME280;4749;51.398;5.466;2022-07-23T05:55:26;101729.28;;;17.89;100.00
9421;BME280;4749;51.398;5.466;2022-07-23T05:57:56;101736.91;;;18.17;100.00
9421;BME280;4749;51.398;5.466;2022-07-23T06:00:24;101732.28;;;18.29;100.00
9421;BME280;4749;51.398;5.466;2022-07-23T06:02:51;101736.69;;;18.31;100.00
9421;BME280;4749;51.398;5.466;2022-07-23T06:05:22;101731.16;;;18.44;100.00
9421;BME280;4749;51.398;5.466;2022-07-23T06:07:49;101738.91;;;18.60;100.00
9421;BME280;4749;51.398;5.466;2022-07-23T06:10:17;101739.69;;;18.68;100.00
9421;BME280;4749;51.398;5.466;2022-07-23T06:12:44;101741.03;;;18.92;100.00
9421;BME280;4749;51.398;5.466;2022-07-23T06:15:11;101742.13;;;18.80;100.00
9421;BME280;4749;51.398;5.466;2022-07-23T06:17:39;101741.25;;;18.79;100.00
9421;BME280;4749;51.398;5.466;2022-07-23T06:20:08;101731.97;;;19.03;100.00
9421;BME280;4749;51.398;5.466;2022-07-23T06:22:36;101732.22;;;18.88;100.00
9421;BME280;4749;51.398;5.466;2022-07-23T06:25:04;101737.44;;;18.96;100.00
9421;BME280;4749;51.398;5.466;2022-07-23T06:27:41;101737.91;;;19.18;100.00
9421;BME280;4749;51.398;5.466;2022-07-23T06:30:09;101742.16;;;19.28;100.00
9421;BME280;4749;51.398;5.466;2022-07-23T06:32:37;101740.41;;;19.25;100.00
9421;BME280;4749;51.398;5.466;2022-07-23T06:35:04;101746.56;;;19.30;100.00
9421;BME280;4749;51.398;5.466;2022-07-23T06:37:31;101738.69;;;19.23;100.00
9421;BME280;4749;51.398;5.466;2022-07-23T06:39:59;101737.69;;;19.75;100.00
9421;BME280;4749;51.398;5.466;2022-07-23T06:42:28;101738.81;;;19.63;100.00
9421;BME280;4749;51.398;5.466;2022-07-23T06:44:55;101747.97;;;19.48;100.00
9421;BME280;4749;51.398;5.466;2022-07-23T06:47:22;101750.84;;;19.37;100.00
9421;BME280;4749;51.398;5.466;2022-07-23T06:49:49;101741.06;;;19.83;100.00
9421;BME280;4749;51.398;5.466;2022-07-23T06:52:16;101747.91;;;19.96;100.00
9421;BME280;4749;51.398;5.466;2022-07-23T06:54:43;101747.03;;;19.52;100.00
9421;BME280;4749;51.398;5.466;2022-07-23T06:57:11;101747.34;;;19.80;100.00
9421;BME280;4749;51.398;5.466;2022-07-23T06:59:38;101738.38;;;19.84;100.00
9421;BME280;4749;51.398;5.466;2022-07-23T07:02:08;101742.22;;;19.71;100.00
9421;BME280;4749;51.398;5.466;2022-07-23T07:04:35;101741.25;;;19.74;100.00
9421;BME280;4749;51.398;5.466;2022-07-23T07:07:02;101744.72;;;20.19;100.00
9421;BME280;4749;51.398;5.466;2022-07-23T07:09:29;101739.91;;;20.33;100.00
9421;BME280;4749;51.398;5.466;2022-07-23T07:11:56;101753.91;;;20.46;100.00
9421;BME280;4749;51.398;5.466;2022-07-23T07:14:23;101747.78;;;20.39;100.00
9421;BME280;4749;51.398;5.466;2022-07-23T07:16:50;101744.50;;;20.28;100.00
9421;BME280;4749;51.398;5.466;2022-07-23T07:19:17;101754.09;;;20.37;100.00
9421;BME280;4749;51.398;5.466;2022-07-23T07:21:44;101744.16;;;20.45;100.00
9421;BME280;4749;51.398;5.466;2022-07-23T07:24:12;101752.16;;;20.45;100.00
9421;BME280;4749;51.398;5.466;2022-07-23T07:26:39;101752.22;;;20.40;100.00
9421;BME280;4749;51.398;5.466;2022-07-23T07:29:09;101755.56;;;20.51;100.00
9421;BME280;4749;51.398;5.466;2022-07-23T07:31:39;101762.44;;;20.62;100.00
9421;BME280;4749;51.398;5.466;2022-07-23T07:34:10;101764.75;;;21.11;100.00
9421;BME280;4749;51.398;5.466;2022-07-23T07:36:37;101760.69;;;20.59;100.00
9421;BME280;4749;51.398;5.466;2022-07-23T07:39:04;101768.66;;;20.62;100.00
9421;BME280;4749;51.398;5.466;2022-07-23T07:41:32;101766.13;;;20.92;100.00
9421;BME280;4749;51.398;5.466;2022-07-23T07:43:59;101765.91;;;20.65;100.00
9421;BME280;4749;51.398;5.466;2022-07-23T07:46:26;101774.31;;;21.18;100.00
9421;BME280;4749;51.398;5.466;2022-07-23T07:48:54;101768.78;;;21.26;100.00
9421;BME280;4749;51.398;5.466;2022-07-23T07:51:24;101771.88;;;21.11;100.00
9421;BME280;4749;51.398;5.466;2022-07-23T07:53:51;101769.63;;;21.60;100.00
9421;BME280;4749;51.398;5.466;2022-07-23T07:56:19;101775.72;;;21.66;100.00
9421;BME280;4749;51.398;5.466;2022-07-23T07:58:45;101778.25;;;21.72;100.00
9421;BME280;4749;51.398;5.466;2022-07-23T08:01:13;101777.47;;;21.67;100.00
9421;BME280;4749;51.398;5.466;2022-07-23T08:03:40;101787.53;;;21.58;100.00
9421;BME280;4749;51.398;5.466;2022-07-23T08:06:08;101783.28;;;21.82;100.00
9421;BME280;4749;51.398;5.466;2022-07-23T08:08:35;101782.50;;;21.79;100.00
9421;BME280;4749;51.398;5.466;2022-07-23T08:11:02;101781.84;;;21.69;100.00
9421;BME280;4749;51.398;5.466;2022-07-23T08:13:29;101779.44;;;22.22;100.00
9421;BME280;4749;51.398;5.466;2022-07-23T08:15:57;101774.50;;;22.08;100.00
9421;BME280;4749;51.398;5.466;2022-07-23T08:18:24;101773.03;;;22.26;100.00
9421;BME280;4749;51.398;5.466;2022-07-23T08:20:51;101777.53;;;21.96;100.00
9421;BME280;4749;51.398;5.466;2022-07-23T08:23:18;101777.38;;;21.71;100.00
9421;BME280;4749;51.398;5.466;2022-07-23T08:25:46;101780.72;;;22.09;100.00
9421;BME280;4749;51.398;5.466;2022-07-23T08:28:15;101792.59;;;22.30;100.00
9421;BME280;4749;51.398;5.466;2022-07-23T08:30:44;101787.66;;;22.44;100.00
9421;BME280;4749;51.398;5.466;2022-07-23T08:33:15;101803.22;;;22.33;100.00
9421;BME280;4749;51.398;5.466;2022-07-23T08:36:02;101797.22;;;22.25;100.00
9421;BME280;4749;51.398;5.466;2022-07-23T08:38:31;101798.13;;;22.52;100.00
9421;BME280;4749;51.398;5.466;2022-07-23T08:40:58;101791.91;;;22.51;100.00
9421;BME280;4749;51.398;5.466;2022-07-23T08:43:31;101811.81;;;22.42;100.00
9421;BME280;4749;51.398;5.466;2022-07-23T08:46:00;101798.63;;;22.36;100.00
9421;BME280;4749;51.398;5.466;2022-07-23T08:51:00;101806.19;;;22.80;100.00
9421;BME280;4749;51.398;5.466;2022-07-23T08:53:29;101799.56;;;22.91;100.00
9421;BME280;4749;51.398;5.466;2022-07-23T08:55:59;101793.56;;;22.55;100.00
9421;BME280;4749;51.398;5.466;2022-07-23T08:58:28;101796.84;;;22.37;100.00
9421;BME280;4749;51.398;5.466;2022-07-23T09:00:57;101809.47;;;22.89;100.00
9421;BME280;4749;51.398;5.466;2022-07-23T09:03:30;101807.03;;;22.54;100.00
9421;BME280;4749;51.398;5.466;2022-07-23T09:05:59;101802.81;;;22.73;100.00
9421;BME280;4749;51.398;5.466;2022-07-23T09:08:34;101809.59;;;23.38;100.00
9421;BME280;4749;51.398;5.466;2022-07-23T09:11:05;101806.72;;;23.17;100.00
9421;BME280;4749;51.398;5.466;2022-07-23T09:13:42;101804.22;;;23.38;100.00
9421;BME280;4749;51.398;5.466;2022-07-23T09:16:23;101802.63;;;23.32;100.00
9421;BME280;4749;51.398;5.466;2022-07-23T09:19:03;101798.63;;;23.69;100.00
9421;BME280;4749;51.398;5.466;2022-07-23T09:21:36;101802.28;;;23.16;100.00
9421;BME280;4749;51.398;5.466;2022-07-23T09:24:08;101789.75;;;23.17;100.00
9421;BME280;4749;51.398;5.466;2022-07-23T09:26:45;101786.25;;;23.40;100.00
9421;BME280;4749;51.398;5.466;2022-07-23T09:29:20;101784.09;;;23.49;100.00
9421;BME280;4749;51.398;5.466;2022-07-23T09:32:00;101799.00;;;23.33;100.00
9421;BME280;4749;51.398;5.466;2022-07-23T09:34:34;101801.91;;;23.27;100.00
9421;BME280;4749;51.398;5.466;2022-07-23T09:37:18;101794.97;;;23.46;100.00
9421;BME280;4749;51.398;5.466;2022-07-23T09:39:48;101805.13;;;23.63;100.00
9421;BME280;4749;51.398;5.466;2022-07-23T09:42:24;101814.91;;;23.89;100.00
9421;BME280;4749;51.398;5.466;2022-07-23T09:44:54;101820.44;;;24.08;100.00
9421;BME280;4749;51.398;5.466;2022-07-23T09:47:24;101817.84;;;24.28;100.00
9421;BME280;4749;51.398;5.466;2022-07-23T09:50:05;101820.97;;;23.69;100.00
9421;BME280;4749;51.398;5.466;2022-07-23T09:52:46;101820.47;;;23.58;100.00
9421;BME280;4749;51.398;5.466;2022-07-23T09:55:17;101814.88;;;24.12;100.00
9421;BME280;4749;51.398;5.466;2022-07-23T09:57:46;101823.03;;;23.86;100.00
9421;BME280;4749;51.398;5.466;2022-07-23T10:00:17;101821.16;;;23.90;100.00
9421;BME280;4749;51.398;5.466;2022-07-23T10:02:46;101811.03;;;23.73;100.00
9421;BME280;4749;51.398;5.466;2022-07-23T10:05:14;101814.34;;;23.79;100.00
9421;BME280;4749;51.398;5.466;2022-07-23T10:07:43;101810.03;;;24.46;100.00
9421;BME280;4749;51.398;5.466;2022-07-23T10:10:17;101812.31;;;24.56;100.00
9421;BME280;4749;51.398;5.466;2022-07-23T10:12:45;101812.22;;;24.58;100.00
9421;BME280;4749;51.398;5.466;2022-07-23T10:15:18;101811.44;;;25.20;100.00
9421;BME280;4749;51.398;5.466;2022-07-23T10:17:45;101809.16;;;24.45;100.00
9421;BME280;4749;51.398;5.466;2022-07-23T10:20:13;101806.00;;;24.99;100.00
9421;BME280;4749;51.398;5.466;2022-07-23T10:25:51;101825.47;;;24.84;97.29
9421;BME280;4749;51.398;5.466;2022-07-23T10:29:12;101814.78;;;25.05;97.33
9421;BME280;4749;51.398;5.466;2022-07-23T10:32:00;101811.72;;;24.70;100.00
9421;BME280;4749;51.398;5.466;2022-07-23T10:35:13;101812.38;;;24.08;100.00
9421;BME280;4749;51.398;5.466;2022-07-23T10:37:50;101797.81;;;24.37;100.00
9421;BME280;4749;51.398;5.466;2022-07-23T10:40:21;101808.53;;;24.38;100.00
9421;BME280;4749;51.398;5.466;2022-07-23T10:42:51;101809.84;;;24.94;100.00
9421;BME280;4749;51.398;5.466;2022-07-23T10:45:33;101814.63;;;25.50;100.00
9421;BME280;4749;51.398;5.466;2022-07-23T10:48:17;101814.88;;;25.02;100.00
9421;BME280;4749;51.398;5.466;2022-07-23T10:56:51;101819.31;;;24.82;98.69
9421;BME280;4749;51.398;5.466;2022-07-23T10:59:30;101809.75;;;25.17;100.00
9421;BME280;4749;51.398;5.466;2022-07-23T11:02:21;101818.44;;;25.02;90.54
9421;BME280;4749;51.398;5.466;2022-07-23T11:04:51;101810.91;;;25.12;100.00
9421;BME280;4749;51.398;5.466;2022-07-23T11:07:19;101811.25;;;25.24;100.00
9421;BME280;4749;51.398;5.466;2022-07-23T11:09:48;101816.41;;;25.09;94.45
9421;BME280;4749;51.398;5.466;2022-07-23T11:15:11;101814.66;;;25.08;85.64
9421;BME280;4749;51.398;5.466;2022-07-23T11:20:18;101801.28;;;25.26;91.54
9421;BME280;4749;51.398;5.466;2022-07-23T11:25:34;101810.53;;;25.41;82.88
9421;BME280;4749;51.398;5.466;2022-07-23T11:28:15;101810.84;;;25.54;83.83
9421;BME280;4749;51.398;5.466;2022-07-23T11:30:47;101801.19;;;25.69;85.20
9421;BME280;4749;51.398;5.466;2022-07-23T11:35:47;101791.72;;;25.80;89.49
9421;BME280;4749;51.398;5.466;2022-07-23T11:38:22;101803.22;;;25.84;83.84
9421;BME280;4749;51.398;5.466;2022-07-23T11:40:55;101792.66;;;25.59;83.28
9421;BME280;4749;51.398;5.466;2022-07-23T11:43:25;101794.81;;;25.51;88.79
9421;BME280;4749;51.398;5.466;2022-07-23T11:45:58;101796.19;;;26.19;88.56
9421;BME280;4749;51.398;5.466;2022-07-23T11:48:29;101799.22;;;26.30;82.48
9421;BME280;4749;51.398;5.466;2022-07-23T11:50:58;101790.63;;;26.03;87.94
9421;BME280;4749;51.398;5.466;2022-07-23T11:53:30;101798.91;;;26.38;84.30
9421;BME280;4749;51.398;5.466;2022-07-23T11:56:10;101795.91;;;26.06;77.40
9421;BME280;4749;51.398;5.466;2022-07-23T11:58:38;101796.53;;;25.93;85.48
9421;BME280;4749;51.398;5.466;2022-07-23T12:01:06;101798.38;;;26.11;79.93
9421;BME280;4749;51.398;5.466;2022-07-23T12:03:52;101804.34;;;26.18;73.80
9421;BME280;4749;51.398;5.466;2022-07-23T12:06:24;101793.69;;;25.77;80.83
9421;BME280;4749;51.398;5.466;2022-07-23T12:08:51;101790.38;;;26.09;81.71
9421;BME280;4749;51.398;5.466;2022-07-23T12:11:18;101793.41;;;26.02;80.05
9421;BME280;4749;51.398;5.466;2022-07-23T12:13:56;101798.91;;;26.38;75.25
9421;BME280;4749;51.398;5.466;2022-07-23T12:16:24;101794.81;;;26.10;74.30
9421;BME280;4749;51.398;5.466;2022-07-23T12:18:51;101799.47;;;26.26;76.46
9421;BME280;4749;51.398;5.466;2022-07-23T12:21:18;101789.59;;;26.62;76.79
9421;BME280;4749;51.398;5.466;2022-07-23T12:23:48;101787.63;;;27.19;76.35
9421;BME280;4749;51.398;5.466;2022-07-23T12:26:16;101786.50;;;27.06;79.05
9421;BME280;4749;51.398;5.466;2022-07-23T12:28:52;101775.91;;;26.67;73.52
9421;BME280;4749;51.398;5.466;2022-07-23T12:31:26;101788.75;;;26.79;68.86
9421;BME280;4749;51.398;5.466;2022-07-23T12:33:54;101776.50;;;26.91;75.99
9421;BME280;4749;51.398;5.466;2022-07-23T12:36:38;101788.94;;;26.76;68.13
9421;BME280;4749;51.398;5.466;2022-07-23T12:39:08;101777.28;;;26.76;72.28
9421;BME280;4749;51.398;5.466;2022-07-23T12:41:53;101769.69;;;26.65;68.98
9421;BME280;4749;51.398;5.466;2022-07-23T12:44:21;101769.59;;;26.85;71.87
9421;BME280;4749;51.398;5.466;2022-07-23T12:46:52;101772.19;;;26.87;64.30
9421;BME280;4749;51.398;5.466;2022-07-23T12:49:27;101762.25;;;26.70;66.06
9421;BME280;4749;51.398;5.466;2022-07-23T12:51:56;101768.22;;;27.46;63.71
9421;BME280;4749;51.398;5.466;2022-07-23T12:54:27;101767.63;;;27.24;63.36
9421;BME280;4749;51.398;5.466;2022-07-23T12:56:55;101755.88;;;27.25;64.86
9421;BME280;4749;51.398;5.466;2022-07-23T12:59:22;101763.88;;;27.43;62.99
9421;BME280;4749;51.398;5.466;2022-07-23T13:01:57;101756.56;;;27.45;66.82
9421;BME280;4749;51.398;5.466;2022-07-23T13:04:28;101764.44;;;27.50;60.85
9421;BME280;4749;51.398;5.466;2022-07-23T13:06:59;101758.22;;;27.48;63.21
9421;BME280;4749;51.398;5.466;2022-07-23T13:09:33;101765.25;;;27.35;63.20
9421;BME280;4749;51.398;5.466;2022-07-23T13:12:08;101748.59;;;27.93;66.34
9421;BME280;4749;51.398;5.466;2022-07-23T13:14:38;101761.06;;;27.62;66.26
9421;BME280;4749;51.398;5.466;2022-07-23T13:17:05;101761.88;;;27.47;68.31
9421;BME280;4749;51.398;5.466;2022-07-23T13:19:33;101750.63;;;27.72;67.81
9421;BME280;4749;51.398;5.466;2022-07-23T13:22:01;101752.28;;;27.74;66.96
9421;BME280;4749;51.398;5.466;2022-07-23T13:24:35;101762.41;;;27.54;67.20
9421;BME280;4749;51.398;5.466;2022-07-23T13:27:05;101759.47;;;27.91;64.79
9421;BME280;4749;51.398;5.466;2022-07-23T13:29:54;101751.81;;;27.99;65.39
9421;BME280;4749;51.398;5.466;2022-07-23T13:32:21;101740.78;;;27.71;69.98
9421;BME280;4749;51.398;5.466;2022-07-23T13:34:49;101747.16;;;28.35;69.67
9421;BME280;4749;51.398;5.466;2022-07-23T13:37:17;101749.47;;;28.09;69.01